Weather observations for the past three days for
Borger, Hutchinson County Airport
Metric (Imperial)
Date Time (cdt) Wind (kph) Vis. (km) Weather Sky Cond. Temperature (ºC) Relative Humidity Wind Chill (°C) Heat Index (°C) Pressure Precipitation (cm)
Air Dwpt 6 hour altimeter (cm) sea level (mb) 1 hr 3 hr 6 hr
Max. Min.
06 09:51 S 15 16.09 A Few Clouds FEW120 28.3 15.6 46% 28 76.35 1012.7
06 08:51 S 17 16.09 Partly Cloudy SCT120 26.7 15 49% 27 76.33 1012.3
06 07:51 S 17 16.09 Fair CLR 25.6 14.4 50% 26 76.28 1011.7
06 06:51 S 11 16.09 Fair CLR 26.1 15 29.4 26.1 50% 27 76.25 1011.1
06 05:51 SE 11 16.09 Fair CLR 26.7 14.4 47% 27 76.28 1011.4
06 04:51 E 9 16.09 Fair CLR 27.2 14.4 45% 27 76.3 1011.7
06 03:51 N 6 16.09 Mostly Cloudy BKN100 27.2 14.4 45% 27 76.3 1011.8
06 02:51 S 13 16.09 A Few Clouds FEW100 28.3 14.4 43% 28 76.23 1010.8
06 01:51 S 17 G 33 16.09 Fair CLR 28.9 14.4 41% 29 76.25 1010.9
06 00:51 S 20 G 41 16.09 Fair CLR 29.4 13.9 35 29.4 39% 29 76.23 1010.7
05 23:51 SE 28 G 46 16.09 Fair CLR 30 13.9 37% 29 76.2 1010.4
05 22:51 SE 28 G 46 16.09 Fair CLR 30.6 14.4 37% 30 76.23 1010.8
05 21:51 SE 28 G 46 16.09 Fair CLR 31.1 15 38% 31 76.17 1010.4
05 20:51 SE 20 16.09 Fair CLR 32.8 13.9 32% 32 76.1 1009.4
05 19:51 SE 19 G 35 16.09 Fair CLR 34.4 14.4 30% 34 76.07 1008.9
05 18:51 SE 19 16.09 Fair CLR 35 14.4 37.8 35 29% 34 76.02 1008.3
05 17:51 SE 20 G 37 16.09 Fair CLR 35.6 15 29% 35 76 1007.9
05 16:51 SE 22 G 35 16.09 Thunderstorm in Vicinity FEW090 37.8 15 26% 38 76 1007.7
05 15:51 S 24 G 33 16.09 A Few Clouds FEW085 36.1 15 28% 36 76.07 1008.8
05 14:51 S 20 G 35 16.09 A Few Clouds FEW120 37.2 15 27% 37 76.12 1009.2
05 12:51 S 15 G 37 16.09 Fair CLR 35.6 16.7 35.6 24.4 32% 36 76.2 1010.5
05 11:51 S 22 G 35 16.09 Fair CLR 33.3 17.2 38% 34 76.25 1010.9
05 10:51 S 24 G 35 16.09 Fair CLR 31.1 17.8 45% 32 76.25 1011.1
05 09:51 S 19 16.09 Fair CLR 28.9 17.8 51% 30 76.25 1011.3
05 08:51 S 15 16.09 Fair CLR 26.1 17.2 58% 27 76.25 1011.4
05 07:51 S 15 16.09 Fair CLR 25 17.2 62% 26 76.25 1011.1
05 06:51 Calm 16.09 Fair CLR 24.4 18.3 30 23.9 69% 25 76.23 1010.8
05 05:51 NE 7 16.09 Fair CLR 25 18.3 66% 26 76.23 1010.8
05 04:51 SE 6 16.09 Mostly Cloudy BKN120 25.6 17.8 62% 27 76.25 1010.9
05 03:51 NE 17 16.09 Fair CLR 25.6 17.8 62% 27 76.28 1011.4
05 02:51 Calm 16.09 Partly Cloudy FEW055 SCT100 SCT120 28.3 17.8 53% 29 76.28 1011.3
05 01:51 NW 9 16.09 Overcast SCT070 OVC120 28.9 16.7 48% 29 76.25 1011.1
05 00:51 S 17 G 33 16.09 Fair CLR 30 16.1 37.2 30 43% 30 76.17 1009.8
04 23:51 S 28 G 43 16.09 Fair CLR 30.6 16.1 42% 31 76.15 1009.7
04 22:51 S 22 G 33 16.09 Fair CLR 31.1 16.1 40% 31 76.15 1009.7
04 21:51 SE 30 G 48 16.09 Light Rain SCT060 OVC110 30.6 15.6 40% 30 76.1 1009.3
04 20:51 SE 19 16.09 Partly Cloudy SCT120 33.9 12.2 27% 33 76.02 1008.2
04 19:51 SE 19 16.09 Fair CLR 35.6 11.7 23% 34 75.97 1007.6
04 18:51 S 22 G 35 16.09 Fair CLR 37.2 11.1 39.4 36.1 21% 36 75.95 1007.1
04 17:51 S 26 G 41 16.09 A Few Clouds FEW110 37.8 11.7 21% 37 75.92 1006.6
04 16:51 SE 17 16.09 A Few Clouds FEW120 39.4 8.9 16% 37 75.95 1006.7
04 15:51 S 17 G 28 16.09 Mostly Cloudy BKN110 38.3 10 18% 37 75.97 1007.3
04 14:51 SW 9 16.09 Partly Cloudy SCT100 37.2 11.1 21% 36 76.02 1007.9
04 13:51 W 7 16.09 Fair CLR 37.2 11.7 21% 36 76.07 1008.6
04 12:51 Calm 16.09 Fair CLR 36.7 12.8 36.7 23.9 24% 36 76.12 1009.5
04 11:51 Vrbl 11 16.09 Fair CLR 35 13.9 28% 34 76.15 1009.7
04 10:51 Vrbl 7 16.09 Fair CLR 32.8 15 34% 32 76.15 1009.9
04 09:51 S 19 16.09 Fair CLR 29.4 17.2 48% 30 76.15 1010.2
04 08:51 S 20 16.09 Fair CLR 26.1 18.3 62% 27 76.15 1010.5
04 07:51 SW 7 16.09 Fair CLR 23.9 18.3 71% 25 76.15 1010.3
04 06:51 S 13 16.09 Fair CLR 25 18.3 27.8 25 66% 26 76.1 1009.5
04 05:51 S 17 16.09 Fair CLR 26.1 17.8 60% 27 76.05 1008.6
04 04:51 SE 13 G 28 16.09 Fair CLR 26.7 17.2 56% 27 76.05 1008.8
04 03:51 SE 15 16.09 Fair CLR 26.7 16.1 52% 27 76.02 1008.5
04 02:51 S 15 16.09 Fair CLR 26.7 15.6 51% 27 76.05 1008.4
04 01:51 S 20 G 35 16.09 Fair CLR 27.2 15 47% 27 76.05 1008.4
04 00:51 S 17 G 33 16.09 Fair CLR 27.8 15 31.1 27.8 46% 28 76.05 1008.3
03 23:51 SE 22 G 33 16.09 Fair CLR 28.9 11.7 34% 28 76.02 1007.9
03 22:51 SE 9 16.09 Fair CLR 28.3 12.8 38% 28 76 1008.0
03 21:51 S 26 G 39 16.09 Fair CLR 29.4 13.3 37% 29 76 1007.8
03 20:51 SE 19 G 35 16.09 Fair CLR 28.9 15.6 44% 29 76 1008.3
03 19:51 SE 20 G 35 16.09 Fair CLR 30 13.9 37% 29 75.97 1007.9
03 18:51 SE 26 G 52 16.09 Fair CLR 31.1 14.4 38.9 28.9 36% 31 75.95 1007.7 0.13
03 17:51 SE 19 16.09 Fair CLR 33.3 13.9 31% 33 75.9 1006.7
03 16:51 E 24 16.09 A Few Clouds FEW080 FEW110 31.1 15.6 39% 31 75.9 1007.0 0.13
03 15:51 N 22 G 74 16.09 Thunderstorm OVC110 32.2 13.3 32% 31 75.95 1007.4
03 14:51 W 9 16.09 Mostly Cloudy BKN110 37.8 11.1 20% 36 75.97 1007.1
03 13:51 Calm 16.09 A Few Clouds FEW110 37.2 11.7 21% 36 76.02 1008.0
03 12:51 SW 11 G 31 16.09 Fair CLR 37.2 12.2 37.2 24.4 22% 36 76.07 1008.8
03 11:51 SW 24 G 39 16.09 Fair CLR 35.6 12.8 25% 35 76.1 1009.2
03 10:51 SW 28 G 39 16.09 Fair CLR 32.8 12.8 30% 32 76.12 1009.6
Date Time (cdt) Wind (kph) Vis. (km) Weather Sky Cond. Air Dwpt Max. Min. Relative Humidity Wind Chill (°C) Heat Index (°C) altimeter (cm) sea level (mb) 1 hr 3 hr 6 hr
6 hour
Temperature (ºC) Pressure Precipitation (cm)